createdAt,value
2023-05-05T02:22:35.370Z,50.90
2023-05-05T02:25:02.535Z,50.87
2023-05-05T02:27:31.654Z,51.16
2023-05-05T02:29:59.638Z,50.92
2023-05-05T02:32:28.273Z,51.18
2023-05-05T02:34:56.301Z,50.89
2023-05-05T02:37:24.453Z,51.08
2023-05-05T02:39:59.125Z,51.25
2023-05-05T02:42:30.214Z,51.15
2023-05-05T02:44:59.022Z,51.56
2023-05-05T02:47:29.251Z,51.23
2023-05-05T02:49:56.909Z,51.49
2023-05-05T02:52:23.884Z,51.07
2023-05-05T02:54:51.481Z,51.11
2023-05-05T02:57:20.592Z,51.51
2023-05-05T02:59:54.016Z,51.35
2023-05-05T03:02:25.084Z,51.12
2023-05-05T03:04:55.410Z,51.28
2023-05-05T03:07:25.450Z,51.01
2023-05-05T03:09:58.367Z,51.14
2023-05-05T03:12:28.248Z,51.29
2023-05-05T03:14:56.639Z,51.50
2023-05-05T03:17:24.789Z,51.21
2023-05-05T03:19:52.292Z,51.49
2023-05-05T03:22:19.265Z,51.43
2023-05-05T03:24:50.001Z,51.40
2023-05-05T03:27:17.019Z,51.46
2023-05-05T03:29:43.986Z,51.35
2023-05-05T03:32:10.987Z,51.45
2023-05-05T03:34:38.130Z,52.02
2023-05-05T03:37:05.087Z,51.63
2023-05-05T03:39:32.056Z,51.88
2023-05-05T03:41:59.015Z,51.62
2023-05-05T03:44:25.925Z,51.75
2023-05-05T03:46:52.854Z,51.54
2023-05-05T03:49:19.873Z,51.39
2023-05-05T03:51:47.662Z,51.63
2023-05-05T03:54:14.866Z,51.81
2023-05-05T03:56:41.813Z,51.70
2023-05-05T03:59:09.229Z,51.96
2023-05-05T04:01:36.298Z,51.84
2023-05-05T04:04:03.289Z,51.89
2023-05-05T04:06:30.283Z,51.47
2023-05-05T04:08:57.261Z,51.91
2023-05-05T04:11:24.193Z,51.41
2023-05-05T04:13:51.181Z,51.85
2023-05-05T04:16:18.304Z,51.70
2023-05-05T04:18:45.296Z,51.60
2023-05-05T04:21:12.292Z,51.44
2023-05-05T04:23:39.256Z,51.56
2023-05-05T04:26:06.230Z,51.52
2023-05-05T04:28:33.368Z,51.80
2023-05-05T04:31:01.543Z,51.48
2023-05-05T04:33:28.562Z,51.61
2023-05-05T04:35:55.584Z,51.66
2023-05-05T04:38:22.812Z,51.91
2023-05-05T04:40:49.901Z,52.00
2023-05-05T04:43:16.848Z,51.71
2023-05-05T04:45:52.404Z,52.23
2023-05-05T04:48:21.184Z,51.99
2023-05-05T04:50:48.197Z,51.71
2023-05-05T04:53:15.239Z,51.92
2023-05-05T04:55:42.209Z,52.02
2023-05-05T04:58:09.280Z,51.95
2023-05-05T05:00:37.259Z,52.24
2023-05-05T05:03:04.559Z,52.26
2023-05-05T05:05:31.584Z,51.87
2023-05-05T05:07:58.643Z,51.84
2023-05-05T05:10:25.666Z,52.19
2023-05-05T05:12:52.716Z,51.94
2023-05-05T05:15:19.726Z,52.17
2023-05-05T05:17:46.788Z,52.04
2023-05-05T05:20:13.821Z,52.20
2023-05-05T05:22:41.428Z,52.21
2023-05-05T05:25:08.719Z,51.83
2023-05-05T05:27:35.746Z,51.96
2023-05-05T05:30:03.442Z,51.99
2023-05-05T05:32:30.500Z,51.92
2023-05-05T05:34:57.560Z,52.34
2023-05-05T05:37:24.568Z,51.76
2023-05-05T05:39:51.899Z,51.84
2023-05-05T05:42:19.068Z,52.19
2023-05-05T05:44:46.098Z,52.42
2023-05-05T05:47:13.214Z,52.11
2023-05-05T05:49:40.211Z,52.56
2023-05-05T05:52:07.381Z,52.03
2023-05-05T05:54:36.013Z,52.24
2023-05-05T05:57:03.036Z,52.23
2023-05-05T05:59:30.091Z,51.97
2023-05-05T06:01:57.262Z,52.26
2023-05-05T06:04:24.342Z,52.13
2023-05-05T06:06:52.044Z,52.13
2023-05-05T06:09:19.044Z,52.05
2023-05-05T06:11:46.107Z,52.24
2023-05-05T06:14:13.090Z,52.59
2023-05-05T06:16:40.042Z,52.13
2023-05-05T06:19:10.078Z,52.64
2023-05-05T06:21:37.820Z,52.74
2023-05-05T06:24:05.067Z,52.68
2023-05-05T06:26:32.068Z,52.63
2023-05-05T06:28:59.092Z,52.07
2023-05-05T06:31:26.277Z,51.76
2023-05-05T06:33:53.385Z,50.82
2023-05-05T06:36:20.386Z,50.90
2023-05-05T06:38:47.433Z,50.90
2023-05-05T06:41:14.784Z,51.00
2023-05-05T06:43:44.772Z,51.25
2023-05-05T06:46:12.013Z,50.76
2023-05-05T06:48:39.089Z,50.75
2023-05-05T06:51:06.429Z,50.63
2023-05-05T06:53:33.474Z,50.94
2023-05-05T06:56:00.542Z,50.90
2023-05-05T06:58:27.966Z,51.02
2023-05-05T07:00:55.143Z,50.89
2023-05-05T07:03:22.270Z,50.89
2023-05-05T07:05:49.435Z,50.76
2023-05-05T07:08:16.590Z,50.73
2023-05-05T07:10:44.446Z,50.82
2023-05-05T07:13:11.714Z,50.17
2023-05-05T07:15:46.753Z,50.50
2023-05-05T07:18:14.417Z,50.04
2023-05-05T07:20:41.627Z,50.71
2023-05-05T07:23:08.821Z,50.24
2023-05-05T07:25:36.382Z,50.68
2023-05-05T07:28:04.779Z,50.87
2023-05-05T07:30:32.098Z,51.06
2023-05-05T07:32:59.991Z,50.64
2023-05-05T07:35:28.162Z,50.23
2023-05-05T07:37:55.261Z,49.97
2023-05-05T07:40:24.661Z,50.00
2023-05-05T07:42:52.188Z,50.00
2023-05-05T07:45:19.764Z,49.66
2023-05-05T07:47:46.977Z,49.70
2023-05-05T07:50:14.173Z,49.17
2023-05-05T07:52:46.571Z,49.09
2023-05-05T07:55:15.303Z,49.05
2023-05-05T07:57:42.553Z,48.92
2023-05-05T08:00:11.427Z,48.61
2023-05-05T08:02:38.780Z,48.51
2023-05-05T08:05:06.749Z,48.05
2023-05-05T08:07:34.425Z,47.76
2023-05-05T08:10:01.542Z,47.88
2023-05-05T08:12:29.182Z,47.53
2023-05-05T08:14:56.346Z,47.56
2023-05-05T08:17:26.256Z,47.51
2023-05-05T08:19:53.642Z,47.04
2023-05-05T08:22:22.192Z,47.21
2023-05-05T08:24:49.337Z,47.10
2023-05-05T08:27:16.582Z,46.79
2023-05-05T08:29:43.728Z,46.98
2023-05-05T08:32:10.909Z,46.82
2023-05-05T08:34:38.019Z,46.80
2023-05-05T08:37:05.174Z,46.52
2023-05-05T08:39:32.345Z,46.31
2023-05-05T08:41:59.353Z,46.04
2023-05-05T08:44:27.502Z,46.50
2023-05-05T08:46:55.466Z,46.15
2023-05-05T08:49:23.201Z,46.34
2023-05-05T08:51:51.823Z,46.14
2023-05-05T08:54:20.473Z,46.25
2023-05-05T08:56:51.155Z,46.04
2023-05-05T08:59:19.521Z,46.06
2023-05-05T09:01:46.967Z,46.25
2023-05-05T09:04:14.754Z,45.87
2023-05-05T09:06:41.957Z,46.01
2023-05-05T09:09:09.903Z,45.87
2023-05-05T09:11:38.323Z,45.81
2023-05-05T09:14:05.441Z,46.07
2023-05-05T09:16:32.834Z,45.80
2023-05-05T09:19:01.835Z,45.82
2023-05-05T09:21:29.792Z,45.91
2023-05-05T09:24:09.296Z,45.55
2023-05-05T09:29:03.738Z,45.39
2023-05-05T09:31:34.270Z,45.56
2023-05-05T09:34:01.617Z,45.84
2023-05-05T09:36:41.932Z,45.58
2023-05-05T09:39:08.822Z,45.40
2023-05-05T09:41:39.719Z,45.50
2023-05-05T09:44:07.004Z,45.45
2023-05-05T09:46:34.346Z,45.56
2023-05-05T09:51:45.848Z,45.54
2023-05-05T09:54:35.044Z,44.97
2023-05-05T09:57:01.743Z,45.00
2023-05-05T09:59:28.519Z,44.73
2023-05-05T10:02:09.920Z,44.63
2023-05-05T10:04:36.708Z,44.44
2023-05-05T10:07:03.501Z,44.39
2023-05-05T10:09:32.772Z,44.52
2023-05-05T10:12:03.059Z,44.12
2023-05-05T10:14:32.231Z,44.35
2023-05-05T10:16:59.946Z,44.16
2023-05-05T10:19:28.670Z,44.27
2023-05-05T10:21:59.795Z,44.07
2023-05-05T10:26:58.401Z,44.00
2023-05-05T10:31:54.557Z,43.70
2023-05-05T10:36:51.804Z,43.77
2023-05-05T10:39:20.139Z,43.82
2023-05-05T10:41:47.742Z,43.77
2023-05-05T10:44:15.095Z,43.57
2023-05-05T10:46:43.153Z,43.80
2023-05-05T10:49:13.499Z,43.08
2023-05-05T10:51:41.185Z,43.00
2023-05-05T10:54:19.828Z,43.32
2023-05-05T10:56:47.424Z,43.24
2023-05-05T10:59:33.039Z,43.26
2023-05-05T11:01:59.778Z,43.58
2023-05-05T11:04:26.639Z,43.26
2023-05-05T11:07:25.687Z,43.36
2023-05-05T11:09:56.816Z,43.54
2023-05-05T11:12:23.675Z,43.40
2023-05-05T11:15:08.999Z,43.76
2023-05-05T11:17:46.572Z,43.60
2023-05-05T11:20:13.467Z,44.04
2023-05-05T11:22:58.795Z,44.04
2023-05-05T11:25:38.117Z,44.16
2023-05-05T11:28:07.039Z,43.90
2023-05-05T11:30:34.079Z,43.87
2023-05-05T11:33:39.703Z,44.27
2023-05-05T11:36:10.754Z,44.05
2023-05-05T11:38:37.555Z,44.24
2023-05-05T11:41:17.784Z,44.42
2023-05-05T11:43:44.663Z,44.61
2023-05-05T11:46:14.746Z,44.39
2023-05-05T11:48:53.308Z,44.97
2023-05-05T11:51:20.071Z,44.55
2023-05-05T11:53:47.664Z,45.24
2023-05-05T11:59:11.333Z,45.02
2023-05-05T12:01:41.792Z,45.20
2023-05-05T12:04:11.745Z,45.53
2023-05-05T12:06:39.132Z,45.24
2023-05-05T12:09:06.643Z,45.43
2023-05-05T12:14:12.410Z,45.02
2023-05-05T12:19:07.123Z,45.34
2023-05-05T12:21:37.523Z,45.15
2023-05-05T12:24:04.504Z,45.14
2023-05-05T12:26:31.960Z,45.02
2023-05-05T12:28:59.675Z,44.74
2023-05-05T12:31:40.079Z,45.27
2023-05-05T12:34:08.110Z,44.95
2023-05-05T12:36:35.022Z,45.01
2023-05-05T12:39:02.156Z,44.55
2023-05-05T12:41:29.371Z,44.49
2023-05-05T12:43:59.783Z,44.31
2023-05-05T12:46:27.078Z,44.34
2023-05-05T12:49:01.172Z,44.67
2023-05-05T12:51:28.447Z,44.42
2023-05-05T12:54:24.221Z,44.27
2023-05-05T12:56:51.552Z,44.74
2023-05-05T13:01:51.947Z,44.69
2023-05-05T13:04:19.531Z,44.44
2023-05-05T13:06:47.324Z,44.77
2023-05-05T13:09:27.538Z,44.45
2023-05-05T13:11:54.962Z,44.83
2023-05-05T13:14:22.107Z,44.66
2023-05-05T13:16:49.077Z,44.46
2023-05-05T13:19:15.924Z,44.55
2023-05-05T13:21:42.761Z,44.46
2023-05-05T13:26:36.013Z,44.29
2023-05-05T13:29:02.851Z,44.42
2023-05-05T13:31:29.754Z,44.50
2023-05-05T13:33:56.530Z,44.21
2023-05-05T13:36:23.154Z,44.45
2023-05-05T13:38:49.909Z,44.78
2023-05-05T13:43:42.099Z,44.26
2023-05-05T13:46:19.584Z,44.36
2023-05-05T13:48:47.974Z,44.52
2023-05-05T13:51:16.118Z,44.49
2023-05-05T13:53:44.293Z,44.45
2023-05-05T13:56:11.396Z,44.25
2023-05-05T13:58:38.161Z,44.32
2023-05-05T14:01:04.912Z,44.42
2023-05-05T14:03:31.648Z,44.15
2023-05-05T14:05:58.422Z,44.40
2023-05-05T14:08:25.310Z,44.54
2023-05-05T14:10:52.303Z,44.34
2023-05-05T14:13:19.339Z,44.33
2023-05-05T14:15:46.235Z,44.21
2023-05-05T14:18:12.945Z,44.13
2023-05-05T14:20:39.849Z,44.60
2023-05-05T14:23:06.723Z,44.41
2023-05-05T14:25:33.496Z,44.20
2023-05-05T14:28:00.222Z,44.60
2023-05-05T14:30:27.040Z,44.14
2023-05-05T14:32:53.800Z,44.39
2023-05-05T14:35:20.568Z,44.41
2023-05-05T14:37:47.292Z,44.52
2023-05-05T14:40:14.013Z,43.97
2023-05-05T14:42:40.689Z,44.28
2023-05-05T14:45:09.427Z,44.10
2023-05-05T14:47:36.317Z,44.24
2023-05-05T14:50:03.037Z,44.24
2023-05-05T14:52:29.777Z,44.52
2023-05-05T14:54:56.545Z,44.39
2023-05-05T14:57:23.379Z,44.09
2023-05-05T14:59:52.286Z,44.63
2023-05-05T15:02:19.355Z,44.38
2023-05-05T15:04:47.087Z,44.32
2023-05-05T15:07:15.255Z,44.55
2023-05-05T15:09:42.032Z,44.37
2023-05-05T15:12:08.781Z,44.35
2023-05-05T15:14:36.939Z,44.54
2023-05-05T15:17:03.682Z,44.63
2023-05-05T15:19:31.013Z,44.05
2023-05-05T15:21:57.932Z,44.05
2023-05-05T15:24:24.665Z,44.50
2023-05-05T15:29:18.092Z,44.57
2023-05-05T15:31:44.908Z,44.50
2023-05-05T15:34:11.847Z,44.51
2023-05-05T15:36:39.389Z,44.24
2023-05-05T15:39:06.203Z,44.05
2023-05-05T15:41:34.259Z,44.38
2023-05-05T15:44:02.367Z,44.21
2023-05-05T15:49:03.096Z,44.17
2023-05-05T15:51:29.801Z,44.21
2023-05-05T15:53:56.671Z,44.12
2023-05-05T15:56:23.901Z,44.33
2023-05-05T15:58:50.602Z,44.29
2023-05-05T16:01:17.375Z,44.11
2023-05-05T16:03:44.241Z,44.38
2023-05-05T16:11:09.077Z,44.50
2023-05-05T16:13:35.811Z,44.60
2023-05-05T16:16:02.668Z,44.52
2023-05-05T16:18:29.800Z,44.34
2023-05-05T16:20:56.781Z,44.34
2023-05-05T16:25:51.144Z,44.63
2023-05-05T16:28:18.910Z,44.45
2023-05-05T16:30:45.808Z,44.55
2023-05-05T16:33:12.760Z,44.20
2023-05-05T16:38:06.263Z,44.28
2023-05-05T16:40:33.030Z,44.21
2023-05-05T16:42:59.963Z,44.41
2023-05-05T16:45:26.908Z,44.14
2023-05-05T16:47:55.771Z,43.96
2023-05-05T16:50:23.327Z,44.21
2023-05-05T16:52:50.134Z,44.20
2023-05-05T16:55:17.035Z,43.99
2023-05-05T16:57:44.153Z,44.23
2023-05-05T17:00:11.025Z,43.40
2023-05-05T17:02:37.922Z,43.93
2023-05-05T17:05:05.016Z,43.82
2023-05-05T17:07:32.110Z,43.72
2023-05-05T17:09:58.913Z,43.56
2023-05-05T17:12:25.803Z,43.92
2023-05-05T17:14:52.564Z,43.99
2023-05-05T17:17:19.585Z,43.58
2023-05-05T17:22:12.079Z,43.63
2023-05-05T17:24:39.271Z,43.85
2023-05-05T17:27:06.140Z,43.80
2023-05-05T17:29:37.124Z,43.52
2023-05-05T17:32:04.211Z,43.76
2023-05-05T17:34:31.133Z,43.36
2023-05-05T17:36:58.218Z,43.90
2023-05-05T17:39:25.071Z,43.44
2023-05-05T17:41:52.016Z,43.87
2023-05-05T17:44:18.825Z,43.38
2023-05-05T17:46:45.870Z,43.75
2023-05-05T17:49:12.690Z,43.77
2023-05-05T17:54:06.263Z,43.61
2023-05-05T17:56:34.216Z,43.41
2023-05-05T17:59:01.070Z,43.84
2023-05-05T18:01:27.899Z,43.83
2023-05-05T18:03:54.965Z,43.87
2023-05-05T18:06:23.260Z,43.65
2023-05-05T18:08:50.017Z,43.29
2023-05-05T18:11:16.749Z,43.16
2023-05-05T18:16:09.173Z,43.20
2023-05-05T18:18:36.298Z,43.27
2023-05-05T18:21:03.102Z,43.08
2023-05-05T18:23:29.892Z,43.09
2023-05-05T18:25:56.630Z,43.04
2023-05-05T18:28:23.563Z,43.11
2023-05-05T18:30:50.307Z,43.04
2023-05-05T18:33:17.178Z,42.93
2023-05-05T18:35:43.940Z,42.82
2023-05-05T18:40:36.180Z,42.77
2023-05-05T18:43:02.972Z,43.01
2023-05-05T18:45:29.744Z,42.72
2023-05-05T18:47:56.720Z,42.57
2023-05-05T18:50:23.554Z,42.96
2023-05-05T18:52:50.360Z,42.51
2023-05-05T18:55:17.341Z,42.82
2023-05-05T18:57:44.106Z,42.67
2023-05-05T19:00:10.897Z,42.71
2023-05-05T19:02:37.738Z,42.67
2023-05-05T19:05:04.770Z,42.49
2023-05-05T19:07:35.411Z,42.77
2023-05-05T19:10:03.915Z,42.86
2023-05-05T19:12:30.809Z,42.63
2023-05-05T19:14:57.909Z,42.90
2023-05-05T19:17:25.086Z,43.04
2023-05-05T19:19:52.145Z,42.77
2023-05-05T19:22:21.209Z,42.78
2023-05-05T19:24:48.405Z,43.14
2023-05-05T19:27:17.152Z,43.22
2023-05-05T19:29:45.722Z,43.13
2023-05-05T19:32:13.297Z,43.09
2023-05-05T19:34:42.579Z,43.37
2023-05-05T19:37:11.499Z,44.27
2023-05-05T19:39:39.043Z,44.29
2023-05-05T19:42:06.256Z,44.66
2023-05-05T19:44:33.643Z,44.48
2023-05-05T19:47:00.936Z,44.62
2023-05-05T19:49:28.326Z,44.95
2023-05-05T19:51:55.488Z,44.74
2023-05-05T19:54:25.092Z,45.09
2023-05-05T19:56:53.709Z,44.94
2023-05-05T19:59:21.701Z,45.27
2023-05-05T20:01:49.079Z,45.01
2023-05-05T20:04:16.418Z,44.92
2023-05-05T20:06:43.687Z,45.14
2023-05-05T20:09:11.258Z,45.45
2023-05-05T20:11:38.700Z,45.28
2023-05-05T20:14:05.870Z,45.55
2023-05-05T20:16:34.085Z,45.33
2023-05-05T20:19:01.504Z,45.48
2023-05-05T20:21:29.640Z,45.29
2023-05-05T20:23:57.104Z,45.57
2023-05-05T20:26:24.937Z,45.73
2023-05-05T20:28:52.379Z,46.04
2023-05-05T20:31:19.480Z,45.75
2023-05-05T20:33:46.733Z,45.91
2023-05-05T20:36:13.857Z,46.08
2023-05-05T20:38:41.049Z,45.78
2023-05-05T20:41:08.201Z,46.01
2023-05-05T20:43:36.947Z,45.97
2023-05-05T20:46:04.958Z,46.45
2023-05-05T20:48:32.172Z,46.28
2023-05-05T20:50:59.266Z,46.19
2023-05-05T20:53:26.638Z,45.88
2023-05-05T20:55:53.996Z,46.07
2023-05-05T20:58:21.498Z,45.96
2023-05-05T21:00:48.750Z,46.01
2023-05-05T21:03:15.836Z,45.74
2023-05-05T21:05:43.436Z,46.13
2023-05-05T21:08:10.581Z,46.59
2023-05-05T21:10:37.833Z,46.40
2023-05-05T21:13:05.034Z,46.33
2023-05-05T21:15:33.239Z,46.34
2023-05-05T21:18:01.940Z,46.57
2023-05-05T21:20:29.142Z,46.28
2023-05-05T21:22:57.024Z,46.59
2023-05-05T21:25:24.459Z,46.34
2023-05-05T21:27:51.603Z,46.70
2023-05-05T21:30:18.771Z,46.44
2023-05-05T21:32:46.252Z,46.04
2023-05-05T21:35:13.570Z,46.14
2023-05-05T21:37:40.684Z,46.30
2023-05-05T21:40:11.512Z,46.16
2023-05-05T21:42:38.905Z,46.46
2023-05-05T21:45:06.513Z,46.27
2023-05-05T21:47:33.643Z,46.14
2023-05-05T21:50:00.967Z,46.35
2023-05-05T21:52:28.025Z,46.23
2023-05-05T21:54:55.045Z,46.12
2023-05-05T21:57:22.109Z,46.00
2023-05-05T21:59:49.291Z,46.37
2023-05-05T22:02:16.334Z,46.01
2023-05-05T22:04:46.408Z,46.45
2023-05-05T22:07:13.582Z,45.98
2023-05-05T22:09:40.982Z,46.03
2023-05-05T22:12:08.073Z,46.20
2023-05-05T22:14:35.084Z,45.99
2023-05-05T22:17:02.364Z,46.31
2023-05-05T22:19:29.464Z,46.00
2023-05-05T22:21:57.826Z,45.98
2023-05-05T22:24:24.936Z,46.50
2023-05-05T22:26:52.036Z,46.04
2023-05-05T22:29:19.188Z,46.12
2023-05-05T22:31:46.549Z,46.21
2023-05-05T22:34:14.315Z,46.28
2023-05-05T22:36:41.639Z,46.38
2023-05-05T22:39:09.007Z,46.04
2023-05-05T22:41:36.117Z,46.25
2023-05-05T22:44:03.461Z,46.01
2023-05-05T22:46:30.924Z,46.08
2023-05-05T22:48:58.110Z,46.05
2023-05-05T22:51:25.593Z,46.32
2023-05-05T22:53:52.656Z,45.87
2023-05-05T22:56:19.947Z,46.15
2023-05-05T22:58:47.392Z,45.73
2023-05-05T23:01:14.525Z,45.67
2023-05-05T23:03:41.923Z,45.99
2023-05-05T23:06:09.151Z,45.69
2023-05-05T23:08:36.270Z,45.71
2023-05-05T23:11:03.574Z,45.84
2023-05-05T23:13:30.977Z,45.79
2023-05-05T23:15:58.022Z,45.73
2023-05-05T23:18:25.158Z,45.40
2023-05-05T23:20:52.271Z,45.47
2023-05-05T23:23:19.348Z,45.33
2023-05-05T23:25:46.524Z,45.18
2023-05-05T23:28:13.681Z,45.65
2023-05-05T23:30:40.915Z,45.44
2023-05-05T23:33:08.256Z,45.45
2023-05-05T23:35:35.440Z,45.20
2023-05-05T23:38:02.614Z,45.79
2023-05-05T23:40:29.659Z,45.68
2023-05-05T23:42:56.855Z,46.04
2023-05-05T23:45:24.056Z,46.27
2023-05-05T23:47:51.300Z,46.21
2023-05-05T23:50:18.415Z,46.50
2023-05-05T23:52:45.698Z,46.57
2023-05-05T23:55:12.776Z,46.48
2023-05-05T23:57:39.829Z,46.43
